Huvudsida
METAR-TAF:

METAR-TAF

Flygplatser :

Addis Abeba Bole internationella flygplats

Addis Abeba, Etiopien

latitud: 08-59N, longitud: 038-48E, höjd: 2355 m

Aktuellt väderrapport

Denna rapport gjordes för 32 minuter sedan, klockan 19:00 UTC
Vind 5 kt från ost/sydost
Temperatur 18°C
Fuktighet 52%
Tryck 1026 hPa
Sikt 10 km eller mer
Spridda moln på en höjd av 2500 ft

METAR: HAAB 141900Z 11005KT 9999 SCT025 18/08 Q1026 NOSIG

Tid: 22:32 (19:32 UTC)

Väderprognos

Denna rapport gjordes för 4 timmar och 2 minuter sedan, klockan 15:30 UTC
Prognos gäller från 14 kl. 18 UTC till 15 kl. 24 UTC
Vind 6 kt från ost
Sikt 10 km eller mer
Spridda moln på en höjd av 3000 ft
Spridda moln på en höjd av 8000 ft
Blir
från 15 kl. 01 UTC till 15 kl. 04 UTC
Vind 6 kt från väst
Få moln på en höjd av 2500 ft

TAF: HAAB 141530Z 1418/1524 10006KT 9999 SCT030 SCT080 BECMG 1501/1504 27006KT FEW025

Aktuella väderrapporter och prognoser från 4000 flygplatser (METAR- och TAF-rapporter).

De tillgängliga stationerna syns som gula och röda prickar på kartan.

För musen över prickarna för att se namnen på stationerna.

Klicka sedan för att få väderrapporter och prognoser.

För att ändra kartan: Klicka på de gröna knapparna med ett svart kors på för att zooma in; den gröna knappen med ett streck på för att zooma ut; eller på de gröna pilarna för angränsande kartor.


METAR-TAF: